sensor_id;sensor_type;location;lat;lon;timestamp;pressure;altitude;pressure_sealevel;temperature;humidity
4346;BME280;2186;49.866;7.986;2024-01-10T00:00:34;101421.38;;;-2.12;54.47
4346;BME280;2186;49.866;7.986;2024-01-10T00:03:00;101423.81;;;-2.16;53.43
4346;BME280;2186;49.866;7.986;2024-01-10T00:05:26;101420.72;;;-2.06;53.61
4346;BME280;2186;49.866;7.986;2024-01-10T00:07:53;101417.34;;;-2.05;54.15
4346;BME280;2186;49.866;7.986;2024-01-10T00:10:20;101410.78;;;-2.16;54.10
4346;BME280;2186;49.866;7.986;2024-01-10T00:12:48;101410.53;;;-2.01;54.08
4346;BME280;2186;49.866;7.986;2024-01-10T00:15:14;101403.28;;;-2.09;54.92
4346;BME280;2186;49.866;7.986;2024-01-10T00:17:41;101407.34;;;-2.36;55.79
4346;BME280;2186;49.866;7.986;2024-01-10T00:20:07;101404.44;;;-2.23;55.75
4346;BME280;2186;49.866;7.986;2024-01-10T00:22:34;101400.53;;;-2.74;57.60
4346;BME280;2186;49.866;7.986;2024-01-10T00:25:01;101405.66;;;-2.76;57.82
4346;BME280;2186;49.866;7.986;2024-01-10T00:27:27;101401.34;;;-2.75;57.35
4346;BME280;2186;49.866;7.986;2024-01-10T00:29:54;101403.25;;;-2.92;58.20
4346;BME280;2186;49.866;7.986;2024-01-10T00:32:23;101392.81;;;-2.73;58.38
4346;BME280;2186;49.866;7.986;2024-01-10T00:34:49;101403.91;;;-2.77;58.88
4346;BME280;2186;49.866;7.986;2024-01-10T00:37:16;101399.22;;;-2.64;58.63
4346;BME280;2186;49.866;7.986;2024-01-10T00:39:42;101402.13;;;-2.78;59.21
4346;BME280;2186;49.866;7.986;2024-01-10T00:42:08;101398.03;;;-2.92;59.81
4346;BME280;2186;49.866;7.986;2024-01-10T00:44:35;101399.78;;;-3.12;60.73
4346;BME280;2186;49.866;7.986;2024-01-10T00:47:02;101394.78;;;-3.26;61.47
4346;BME280;2186;49.866;7.986;2024-01-10T00:49:29;101402.16;;;-3.16;61.67
4346;BME280;2186;49.866;7.986;2024-01-10T00:51:55;101398.75;;;-3.35;62.03
4346;BME280;2186;49.866;7.986;2024-01-10T00:54:22;101407.75;;;-3.65;64.42
4346;BME280;2186;49.866;7.986;2024-01-10T00:56:48;101403.19;;;-3.51;63.45
4346;BME280;2186;49.866;7.986;2024-01-10T00:59:16;101399.13;;;-3.45;63.79
4346;BME280;2186;49.866;7.986;2024-01-10T01:01:43;101399.19;;;-3.63;64.91
4346;BME280;2186;49.866;7.986;2024-01-10T01:04:09;101394.91;;;-3.23;61.83
4346;BME280;2186;49.866;7.986;2024-01-10T01:06:36;101402.78;;;-3.41;63.12
4346;BME280;2186;49.866;7.986;2024-01-10T01:09:02;101403.44;;;-3.65;64.04
4346;BME280;2186;49.866;7.986;2024-01-10T01:11:29;101400.38;;;-3.37;62.95
4346;BME280;2186;49.866;7.986;2024-01-10T01:13:55;101401.66;;;-3.46;63.55
4346;BME280;2186;49.866;7.986;2024-01-10T01:16:22;101403.09;;;-3.53;63.67
4346;BME280;2186;49.866;7.986;2024-01-10T01:18:49;101393.94;;;-3.64;63.98
4346;BME280;2186;49.866;7.986;2024-01-10T01:21:15;101395.00;;;-3.59;64.68
4346;BME280;2186;49.866;7.986;2024-01-10T01:23:42;101401.81;;;-3.80;65.26
4346;BME280;2186;49.866;7.986;2024-01-10T01:26:08;101393.09;;;-3.82;66.30
4346;BME280;2186;49.866;7.986;2024-01-10T01:28:35;101394.44;;;-3.71;65.42
4346;BME280;2186;49.866;7.986;2024-01-10T01:31:02;101398.09;;;-3.68;64.98
4346;BME280;2186;49.866;7.986;2024-01-10T01:33:29;101393.09;;;-3.63;65.17
4346;BME280;2186;49.866;7.986;2024-01-10T01:35:55;101401.66;;;-3.66;65.32
4346;BME280;2186;49.866;7.986;2024-01-10T01:38:22;101403.63;;;-3.60;64.90
4346;BME280;2186;49.866;7.986;2024-01-10T01:40:48;101400.78;;;-3.47;64.16
4346;BME280;2186;49.866;7.986;2024-01-10T01:43:19;101402.00;;;-3.58;63.79
4346;BME280;2186;49.866;7.986;2024-01-10T01:45:47;101408.69;;;-3.44;64.28
4346;BME280;2186;49.866;7.986;2024-01-10T01:48:16;101398.38;;;-3.62;64.83
4346;BME280;2186;49.866;7.986;2024-01-10T01:50:44;101398.44;;;-3.60;64.90
4346;BME280;2186;49.866;7.986;2024-01-10T01:53:11;101402.25;;;-3.71;66.44
4346;BME280;2186;49.866;7.986;2024-01-10T01:55:39;101384.75;;;-3.75;66.04
4346;BME280;2186;49.866;7.986;2024-01-10T01:58:05;101391.66;;;-3.76;66.65
4346;BME280;2186;49.866;7.986;2024-01-10T02:00:32;101399.81;;;-3.86;66.54
4346;BME280;2186;49.866;7.986;2024-01-10T02:02:58;101389.50;;;-3.84;66.57
4346;BME280;2186;49.866;7.986;2024-01-10T02:05:25;101387.66;;;-3.87;67.09
4346;BME280;2186;49.866;7.986;2024-01-10T02:07:52;101395.69;;;-4.00;68.01
4346;BME280;2186;49.866;7.986;2024-01-10T02:10:19;101388.72;;;-3.83;67.24
4346;BME280;2186;49.866;7.986;2024-01-10T02:12:45;101392.25;;;-3.81;66.79
4346;BME280;2186;49.866;7.986;2024-01-10T02:15:13;101390.88;;;-3.73;65.60
4346;BME280;2186;49.866;7.986;2024-01-10T02:17:40;101390.63;;;-3.79;66.32
4346;BME280;2186;49.866;7.986;2024-01-10T02:20:14;101392.84;;;-3.69;66.34
4346;BME280;2186;49.866;7.986;2024-01-10T02:22:43;101394.00;;;-3.63;65.09
4346;BME280;2186;49.866;7.986;2024-01-10T02:25:10;101393.84;;;-3.66;65.33
4346;BME280;2186;49.866;7.986;2024-01-10T02:27:37;101397.53;;;-3.80;66.38
4346;BME280;2186;49.866;7.986;2024-01-10T02:30:05;101389.91;;;-3.95;67.43
4346;BME280;2186;49.866;7.986;2024-01-10T02:32:31;101388.16;;;-3.76;67.13
4346;BME280;2186;49.866;7.986;2024-01-10T02:34:59;101382.75;;;-3.99;68.24
4346;BME280;2186;49.866;7.986;2024-01-10T02:37:25;101381.38;;;-3.92;67.94
4346;BME280;2186;49.866;7.986;2024-01-10T02:39:52;101383.66;;;-3.98;66.59
4346;BME280;2186;49.866;7.986;2024-01-10T02:42:19;101381.69;;;-3.84;66.23
4346;BME280;2186;49.866;7.986;2024-01-10T02:44:45;101388.72;;;-3.83;67.76
4346;BME280;2186;49.866;7.986;2024-01-10T02:47:12;101386.13;;;-3.83;67.25
4346;BME280;2186;49.866;7.986;2024-01-10T02:49:39;101387.72;;;-3.85;66.55
4346;BME280;2186;49.866;7.986;2024-01-10T02:52:05;101385.47;;;-3.97;67.19
4346;BME280;2186;49.866;7.986;2024-01-10T02:54:32;101385.53;;;-3.96;67.41
4346;BME280;2186;49.866;7.986;2024-01-10T02:57:00;101389.59;;;-4.01;67.45
4346;BME280;2186;49.866;7.986;2024-01-10T02:59:26;101385.75;;;-4.09;68.91
4346;BME280;2186;49.866;7.986;2024-01-10T03:01:53;101386.41;;;-4.13;68.62
4346;BME280;2186;49.866;7.986;2024-01-10T03:04:19;101388.88;;;-4.16;68.64
4346;BME280;2186;49.866;7.986;2024-01-10T03:06:46;101382.47;;;-4.05;68.57
4346;BME280;2186;49.866;7.986;2024-01-10T03:09:12;101380.94;;;-4.19;70.25
4346;BME280;2186;49.866;7.986;2024-01-10T03:11:39;101373.44;;;-3.95;68.91
4346;BME280;2186;49.866;7.986;2024-01-10T03:14:10;101373.59;;;-4.28;70.34
4346;BME280;2186;49.866;7.986;2024-01-10T03:16:37;101379.50;;;-4.12;69.55
4346;BME280;2186;49.866;7.986;2024-01-10T03:19:03;101382.22;;;-3.74;68.16
4346;BME280;2186;49.866;7.986;2024-01-10T03:21:30;101362.63;;;-3.85;69.24
4346;BME280;2186;49.866;7.986;2024-01-10T03:23:58;101365.34;;;-3.83;69.26
4346;BME280;2186;49.866;7.986;2024-01-10T03:26:25;101367.50;;;-3.93;69.60
4346;BME280;2186;49.866;7.986;2024-01-10T03:28:52;101358.75;;;-3.95;69.27
4346;BME280;2186;49.866;7.986;2024-01-10T03:31:19;101368.25;;;-4.13;70.45
4346;BME280;2186;49.866;7.986;2024-01-10T03:33:46;101358.75;;;-4.12;70.53
4346;BME280;2186;49.866;7.986;2024-01-10T03:36:15;101361.28;;;-4.14;70.76
4346;BME280;2186;49.866;7.986;2024-01-10T03:38:43;101357.25;;;-4.25;71.24
4346;BME280;2186;49.866;7.986;2024-01-10T03:41:13;101360.91;;;-4.22;72.55
4346;BME280;2186;49.866;7.986;2024-01-10T03:43:41;101346.91;;;-4.07;71.66
4346;BME280;2186;49.866;7.986;2024-01-10T03:46:08;101348.53;;;-4.27;73.25
4346;BME280;2186;49.866;7.986;2024-01-10T03:48:34;101354.84;;;-4.22;73.35
4346;BME280;2186;49.866;7.986;2024-01-10T03:51:01;101353.72;;;-4.27;74.09
4346;BME280;2186;49.866;7.986;2024-01-10T03:53:27;101343.50;;;-4.24;74.24
4346;BME280;2186;49.866;7.986;2024-01-10T03:55:54;101341.41;;;-4.13;73.78
4346;BME280;2186;49.866;7.986;2024-01-10T03:58:20;101341.94;;;-4.21;73.12
4346;BME280;2186;49.866;7.986;2024-01-10T04:00:47;101342.53;;;-4.08;72.63
4346;BME280;2186;49.866;7.986;2024-01-10T04:03:13;101340.81;;;-4.08;72.45
4346;BME280;2186;49.866;7.986;2024-01-10T04:05:41;101342.63;;;-3.88;72.30
4346;BME280;2186;49.866;7.986;2024-01-10T04:08:07;101342.03;;;-3.82;71.75
4346;BME280;2186;49.866;7.986;2024-01-10T04:10:34;101343.16;;;-3.95;71.85
4346;BME280;2186;49.866;7.986;2024-01-10T04:13:00;101341.31;;;-3.97;72.59
4346;BME280;2186;49.866;7.986;2024-01-10T04:15:27;101333.75;;;-3.93;72.29
4346;BME280;2186;49.866;7.986;2024-01-10T04:17:53;101340.72;;;-3.92;71.86
4346;BME280;2186;49.866;7.986;2024-01-10T04:20:20;101347.06;;;-3.85;71.06
4346;BME280;2186;49.866;7.986;2024-01-10T04:22:46;101353.50;;;-3.77;70.83
4346;BME280;2186;49.866;7.986;2024-01-10T04:25:13;101351.41;;;-3.66;71.07
4346;BME280;2186;49.866;7.986;2024-01-10T04:27:39;101350.03;;;-3.77;71.16
4346;BME280;2186;49.866;7.986;2024-01-10T04:30:06;101345.78;;;-3.75;70.82
4346;BME280;2186;49.866;7.986;2024-01-10T04:32:33;101343.94;;;-3.59;70.76
4346;BME280;2186;49.866;7.986;2024-01-10T04:35:00;101343.28;;;-3.54;70.17
4346;BME280;2186;49.866;7.986;2024-01-10T04:37:26;101349.97;;;-3.60;71.32
4346;BME280;2186;49.866;7.986;2024-01-10T04:39:53;101337.59;;;-3.65;71.23
4346;BME280;2186;49.866;7.986;2024-01-10T04:42:19;101349.56;;;-3.49;71.17
4346;BME280;2186;49.866;7.986;2024-01-10T04:44:46;101345.94;;;-3.53;71.06
4346;BME280;2186;49.866;7.986;2024-01-10T04:47:12;101354.69;;;-3.51;71.01
4346;BME280;2186;49.866;7.986;2024-01-10T04:49:38;101354.13;;;-3.63;69.94
4346;BME280;2186;49.866;7.986;2024-01-10T04:52:05;101355.03;;;-3.43;68.48
4346;BME280;2186;49.866;7.986;2024-01-10T04:54:32;101352.31;;;-3.27;69.33
4346;BME280;2186;49.866;7.986;2024-01-10T04:56:58;101345.81;;;-3.37;67.11
4346;BME280;2186;49.866;7.986;2024-01-10T04:59:25;101352.84;;;-3.34;66.49
4346;BME280;2186;49.866;7.986;2024-01-10T05:01:51;101347.06;;;-3.29;66.93
4346;BME280;2186;49.866;7.986;2024-01-10T05:04:18;101348.81;;;-3.28;66.17
4346;BME280;2186;49.866;7.986;2024-01-10T05:06:45;101349.16;;;-3.39;67.41
4346;BME280;2186;49.866;7.986;2024-01-10T05:09:11;101346.94;;;-3.30;67.42
4346;BME280;2186;49.866;7.986;2024-01-10T05:11:38;101346.81;;;-3.33;67.92
4346;BME280;2186;49.866;7.986;2024-01-10T05:14:07;101349.47;;;-3.32;67.40
4346;BME280;2186;49.866;7.986;2024-01-10T05:16:34;101341.50;;;-3.36;67.51
4346;BME280;2186;49.866;7.986;2024-01-10T05:19:01;101338.19;;;-3.13;67.06
4346;BME280;2186;49.866;7.986;2024-01-10T05:21:31;101336.88;;;-3.03;66.19
4346;BME280;2186;49.866;7.986;2024-01-10T05:23:58;101338.50;;;-3.26;66.57
4346;BME280;2186;49.866;7.986;2024-01-10T05:26:25;101340.47;;;-3.40;67.06
4346;BME280;2186;49.866;7.986;2024-01-10T05:28:51;101333.44;;;-3.42;67.34
4346;BME280;2186;49.866;7.986;2024-01-10T05:31:18;101331.72;;;-3.42;67.38
4346;BME280;2186;49.866;7.986;2024-01-10T05:33:44;101333.81;;;-3.33;67.38
4346;BME280;2186;49.866;7.986;2024-01-10T05:36:10;101338.06;;;-3.35;67.25
4346;BME280;2186;49.866;7.986;2024-01-10T05:38:37;101334.78;;;-3.12;66.36
4346;BME280;2186;49.866;7.986;2024-01-10T05:41:04;101338.69;;;-3.21;66.09
4346;BME280;2186;49.866;7.986;2024-01-10T05:43:30;101343.88;;;-3.21;66.92
4346;BME280;2186;49.866;7.986;2024-01-10T05:45:59;101343.81;;;-3.23;66.21
4346;BME280;2186;49.866;7.986;2024-01-10T05:48:25;101339.38;;;-3.25;65.52
4346;BME280;2186;49.866;7.986;2024-01-10T05:50:52;101334.72;;;-3.52;66.51
4346;BME280;2186;49.866;7.986;2024-01-10T05:53:18;101339.69;;;-3.57;66.66
4346;BME280;2186;49.866;7.986;2024-01-10T05:55:45;101341.28;;;-3.60;67.77
4346;BME280;2186;49.866;7.986;2024-01-10T05:58:11;101334.03;;;-3.67;67.09
4346;BME280;2186;49.866;7.986;2024-01-10T06:00:38;101343.47;;;-3.69;67.36
4346;BME280;2186;49.866;7.986;2024-01-10T06:03:04;101337.78;;;-3.61;67.55
4346;BME280;2186;49.866;7.986;2024-01-10T06:05:31;101333.50;;;-3.60;67.00
4346;BME280;2186;49.866;7.986;2024-01-10T06:07:58;101336.91;;;-3.61;67.07
4346;BME280;2186;49.866;7.986;2024-01-10T06:10:24;101335.75;;;-3.68;66.85
4346;BME280;2186;49.866;7.986;2024-01-10T06:12:50;101331.09;;;-3.75;68.14
4346;BME280;2186;49.866;7.986;2024-01-10T06:15:17;101334.19;;;-3.64;68.02
4346;BME280;2186;49.866;7.986;2024-01-10T06:17:44;101337.09;;;-3.76;68.03
4346;BME280;2186;49.866;7.986;2024-01-10T06:20:11;101342.50;;;-3.71;68.41
4346;BME280;2186;49.866;7.986;2024-01-10T06:22:37;101338.41;;;-3.66;67.70
4346;BME280;2186;49.866;7.986;2024-01-10T06:25:04;101343.38;;;-3.71;67.79
4346;BME280;2186;49.866;7.986;2024-01-10T06:27:31;101340.31;;;-3.81;68.01
4346;BME280;2186;49.866;7.986;2024-01-10T06:29:57;101349.19;;;-3.76;68.41
4346;BME280;2186;49.866;7.986;2024-01-10T06:32:24;101339.63;;;-3.58;68.23
4346;BME280;2186;49.866;7.986;2024-01-10T06:34:50;101346.09;;;-3.69;68.05
4346;BME280;2186;49.866;7.986;2024-01-10T06:37:17;101336.66;;;-3.67;67.70
4346;BME280;2186;49.866;7.986;2024-01-10T06:39:43;101344.00;;;-3.76;67.97
4346;BME280;2186;49.866;7.986;2024-01-10T06:42:10;101349.94;;;-3.79;68.82
4346;BME280;2186;49.866;7.986;2024-01-10T06:44:38;101345.25;;;-3.68;67.95
4346;BME280;2186;49.866;7.986;2024-01-10T06:47:04;101343.56;;;-3.68;67.59
4346;BME280;2186;49.866;7.986;2024-01-10T06:49:31;101335.94;;;-3.63;68.04
4346;BME280;2186;49.866;7.986;2024-01-10T06:51:57;101346.22;;;-3.66;67.40
4346;BME280;2186;49.866;7.986;2024-01-10T06:54:26;101335.47;;;-3.74;68.07
4346;BME280;2186;49.866;7.986;2024-01-10T06:56:52;101340.72;;;-3.72;67.49
4346;BME280;2186;49.866;7.986;2024-01-10T06:59:19;101346.59;;;-3.76;67.91
4346;BME280;2186;49.866;7.986;2024-01-10T07:01:51;101342.59;;;-3.70;68.07
4346;BME280;2186;49.866;7.986;2024-01-10T07:04:17;101348.25;;;-3.78;68.03
4346;BME280;2186;49.866;7.986;2024-01-10T07:06:46;101347.44;;;-3.77;68.24
4346;BME280;2186;49.866;7.986;2024-01-10T07:09:13;101344.91;;;-3.76;68.36
4346;BME280;2186;49.866;7.986;2024-01-10T07:11:49;101351.34;;;-3.85;68.41
4346;BME280;2186;49.866;7.986;2024-01-10T07:14:15;101352.47;;;-3.80;68.92
4346;BME280;2186;49.866;7.986;2024-01-10T07:16:42;101358.44;;;-3.83;69.34
4346;BME280;2186;49.866;7.986;2024-01-10T07:19:12;101349.63;;;-3.67;69.24
4346;BME280;2186;49.866;7.986;2024-01-10T07:21:42;101360.94;;;-3.84;69.05
4346;BME280;2186;49.866;7.986;2024-01-10T07:24:09;101361.16;;;-3.80;69.18
4346;BME280;2186;49.866;7.986;2024-01-10T07:26:36;101368.09;;;-3.61;68.29
4346;BME280;2186;49.866;7.986;2024-01-10T07:29:03;101368.66;;;-3.86;68.80
4346;BME280;2186;49.866;7.986;2024-01-10T07:31:30;101370.16;;;-3.54;68.26
4346;BME280;2186;49.866;7.986;2024-01-10T07:33:57;101375.81;;;-3.43;67.82
4346;BME280;2186;49.866;7.986;2024-01-10T07:36:24;101377.25;;;-3.11;67.18
4346;BME280;2186;49.866;7.986;2024-01-10T07:38:53;101383.81;;;-3.58;67.98
4346;BME280;2186;49.866;7.986;2024-01-10T07:41:19;101383.50;;;-3.27;67.56
4346;BME280;2186;49.866;7.986;2024-01-10T07:43:46;101385.81;;;-3.14;66.95
4346;BME280;2186;49.866;7.986;2024-01-10T07:46:13;101383.56;;;-3.25;66.96
4346;BME280;2186;49.866;7.986;2024-01-10T07:48:39;101395.34;;;-3.14;67.02
4346;BME280;2186;49.866;7.986;2024-01-10T07:51:06;101393.81;;;-3.48;67.31
4346;BME280;2186;49.866;7.986;2024-01-10T07:53:33;101394.03;;;-3.24;67.77
4346;BME280;2186;49.866;7.986;2024-01-10T07:56:00;101396.47;;;-3.46;67.90
4346;BME280;2186;49.866;7.986;2024-01-10T07:58:26;101404.41;;;-3.05;67.20
4346;BME280;2186;49.866;7.986;2024-01-10T08:00:53;101403.75;;;-3.01;67.60
4346;BME280;2186;49.866;7.986;2024-01-10T08:03:20;101397.28;;;-2.89;66.60
4346;BME280;2186;49.866;7.986;2024-01-10T08:05:47;101401.44;;;-2.74;66.97
4346;BME280;2186;49.866;7.986;2024-01-10T08:08:14;101400.34;;;-2.79;66.63
4346;BME280;2186;49.866;7.986;2024-01-10T08:10:40;101403.97;;;-2.75;66.64
4346;BME280;2186;49.866;7.986;2024-01-10T08:13:07;101411.16;;;-2.70;66.39
4346;BME280;2186;49.866;7.986;2024-01-10T08:15:33;101412.56;;;-2.57;65.85
4346;BME280;2186;49.866;7.986;2024-01-10T08:18:00;101416.06;;;-2.56;66.15
4346;BME280;2186;49.866;7.986;2024-01-10T08:20:30;101410.78;;;-2.58;66.82
4346;BME280;2186;49.866;7.986;2024-01-10T08:22:56;101414.78;;;-2.66;66.55
4346;BME280;2186;49.866;7.986;2024-01-10T08:25:24;101410.97;;;-2.53;66.72
4346;BME280;2186;49.866;7.986;2024-01-10T08:27:52;101411.69;;;-2.57;67.49
4346;BME280;2186;49.866;7.986;2024-01-10T08:30:23;101411.09;;;-2.50;68.09
4346;BME280;2186;49.866;7.986;2024-01-10T08:32:50;101416.81;;;-2.59;67.43
4346;BME280;2186;49.866;7.986;2024-01-10T08:35:17;101402.53;;;-2.48;67.25
4346;BME280;2186;49.866;7.986;2024-01-10T08:37:43;101410.03;;;-2.34;66.67
4346;BME280;2186;49.866;7.986;2024-01-10T08:40:11;101404.44;;;-2.44;66.56
4346;BME280;2186;49.866;7.986;2024-01-10T08:42:41;101408.50;;;-2.29;65.24
4346;BME280;2186;49.866;7.986;2024-01-10T08:45:08;101402.31;;;-2.33;65.12
4346;BME280;2186;49.866;7.986;2024-01-10T08:47:37;101407.34;;;-2.36;63.80
4346;BME280;2186;49.866;7.986;2024-01-10T08:50:05;101405.97;;;-2.28;64.34
4346;BME280;2186;49.866;7.986;2024-01-10T08:52:35;101406.22;;;-2.22;63.93
4346;BME280;2186;49.866;7.986;2024-01-10T08:55:07;101407.81;;;-2.04;63.32
4346;BME280;2186;49.866;7.986;2024-01-10T08:57:39;101410.91;;;-2.13;63.49
4346;BME280;2186;49.866;7.986;2024-01-10T09:00:06;101424.06;;;-2.31;62.93
4346;BME280;2186;49.866;7.986;2024-01-10T09:02:33;101418.59;;;-2.16;62.98
4346;BME280;2186;49.866;7.986;2024-01-10T09:05:03;101418.94;;;-2.29;63.49
4346;BME280;2186;49.866;7.986;2024-01-10T09:07:30;101420.53;;;-2.33;63.33
4346;BME280;2186;49.866;7.986;2024-01-10T09:09:56;101425.88;;;-2.49;63.57
4346;BME280;2186;49.866;7.986;2024-01-10T09:12:23;101431.75;;;-2.55;63.68
4346;BME280;2186;49.866;7.986;2024-01-10T09:14:50;101429.91;;;-2.57;64.18
4346;BME280;2186;49.866;7.986;2024-01-10T09:17:17;101428.84;;;-2.61;63.40
4346;BME280;2186;49.866;7.986;2024-01-10T09:19:43;101432.03;;;-2.47;64.02
4346;BME280;2186;49.866;7.986;2024-01-10T09:22:09;101427.72;;;-2.67;63.62
4346;BME280;2186;49.866;7.986;2024-01-10T09:24:36;101433.50;;;-2.54;63.87
4346;BME280;2186;49.866;7.986;2024-01-10T09:27:04;101440.38;;;-2.56;63.51
4346;BME280;2186;49.866;7.986;2024-01-10T09:29:30;101438.53;;;-2.58;63.72
4346;BME280;2186;49.866;7.986;2024-01-10T09:31:58;101433.03;;;-2.45;62.90
4346;BME280;2186;49.866;7.986;2024-01-10T09:34:24;101428.19;;;-2.36;63.70
4346;BME280;2186;49.866;7.986;2024-01-10T09:36:51;101428.50;;;-2.49;63.85
4346;BME280;2186;49.866;7.986;2024-01-10T09:39:18;101431.91;;;-2.50;63.26
4346;BME280;2186;49.866;7.986;2024-01-10T09:41:49;101424.00;;;-2.32;64.28
4346;BME280;2186;49.866;7.986;2024-01-10T09:44:17;101421.31;;;-2.34;64.00
4346;BME280;2186;49.866;7.986;2024-01-10T09:46:50;101430.13;;;-2.32;63.97
4346;BME280;2186;49.866;7.986;2024-01-10T09:49:17;101423.88;;;-2.35;64.17
4346;BME280;2186;49.866;7.986;2024-01-10T09:51:47;101418.94;;;-2.29;63.81
4346;BME280;2186;49.866;7.986;2024-01-10T09:54:15;101427.31;;;-2.16;63.25
4346;BME280;2186;49.866;7.986;2024-01-10T09:56:47;101424.13;;;-2.29;63.59
4346;BME280;2186;49.866;7.986;2024-01-10T09:59:13;101425.63;;;-2.34;62.98
4346;BME280;2186;49.866;7.986;2024-01-10T10:01:40;101424.13;;;-2.29;63.24
4346;BME280;2186;49.866;7.986;2024-01-10T10:04:09;101428.44;;;-2.09;62.98
4346;BME280;2186;49.866;7.986;2024-01-10T10:06:37;101426.25;;;-1.98;62.71
4346;BME280;2186;49.866;7.986;2024-01-10T10:09:04;101422.00;;;-1.96;62.49
4346;BME280;2186;49.866;7.986;2024-01-10T10:11:33;101433.19;;;-1.99;62.52
4346;BME280;2186;49.866;7.986;2024-01-10T10:14:16;101433.53;;;-1.91;62.27
4346;BME280;2186;49.866;7.986;2024-01-10T10:16:43;101428.53;;;-1.85;61.91
4346;BME280;2186;49.866;7.986;2024-01-10T10:19:09;101427.38;;;-1.71;61.01
4346;BME280;2186;49.866;7.986;2024-01-10T10:21:39;101429.13;;;-1.70;59.94
4346;BME280;2186;49.866;7.986;2024-01-10T10:24:06;101424.19;;;-1.64;60.83
4346;BME280;2186;49.866;7.986;2024-01-10T10:26:34;101424.72;;;-1.26;60.01
4346;BME280;2186;49.866;7.986;2024-01-10T10:29:01;101428.91;;;-1.31;58.61
4346;BME280;2186;49.866;7.986;2024-01-10T10:31:29;101416.81;;;-1.29;58.75
4346;BME280;2186;49.866;7.986;2024-01-10T10:33:59;101429.22;;;-1.46;59.04
4346;BME280;2186;49.866;7.986;2024-01-10T10:36:26;101423.31;;;-1.18;58.50
4346;BME280;2186;49.866;7.986;2024-01-10T10:38:53;101434.34;;;-1.01;57.40
4346;BME280;2186;49.866;7.986;2024-01-10T10:41:19;101431.47;;;-0.85;57.07
4346;BME280;2186;49.866;7.986;2024-01-10T10:43:47;101434.97;;;-1.08;58.42
4346;BME280;2186;49.866;7.986;2024-01-10T10:46:16;101421.91;;;-0.84;57.45
4346;BME280;2186;49.866;7.986;2024-01-10T10:48:43;101426.91;;;-0.67;56.64
4346;BME280;2186;49.866;7.986;2024-01-10T10:51:16;101422.16;;;-0.78;57.18
4346;BME280;2186;49.866;7.986;2024-01-10T10:53:44;101420.31;;;-0.55;57.11
4346;BME280;2186;49.866;7.986;2024-01-10T10:56:12;101410.47;;;-0.88;55.94
4346;BME280;2186;49.866;7.986;2024-01-10T10:58:41;101414.22;;;-0.56;55.50
4346;BME280;2186;49.866;7.986;2024-01-10T11:01:11;101421.09;;;-0.58;54.70
4346;BME280;2186;49.866;7.986;2024-01-10T11:03:39;101406.69;;;-0.47;55.48
4346;BME280;2186;49.866;7.986;2024-01-10T11:06:11;101409.03;;;-0.29;54.91
4346;BME280;2186;49.866;7.986;2024-01-10T11:08:53;101406.97;;;-0.39;54.29
4346;BME280;2186;49.866;7.986;2024-01-10T11:16:52;101404.25;;;-0.15;54.13
4346;BME280;2186;49.866;7.986;2024-01-10T11:24:34;101388.16;;;0.26;53.68
4346;BME280;2186;49.866;7.986;2024-01-10T11:29:40;101383.22;;;0.07;54.26
4346;BME280;2186;49.866;7.986;2024-01-10T11:32:12;101389.78;;;-0.06;55.03
4346;BME280;2186;49.866;7.986;2024-01-10T11:34:49;101391.41;;;-0.09;53.92
4346;BME280;2186;49.866;7.986;2024-01-10T11:37:16;101378.69;;;0.02;54.48
4346;BME280;2186;49.866;7.986;2024-01-10T11:39:42;101378.13;;;0.12;54.22
4346;BME280;2186;49.866;7.986;2024-01-10T11:42:10;101373.91;;;0.15;54.27
4346;BME280;2186;49.866;7.986;2024-01-10T11:44:47;101376.66;;;0.20;54.10
4346;BME280;2186;49.866;7.986;2024-01-10T11:47:19;101372.69;;;0.04;54.51
4346;BME280;2186;49.866;7.986;2024-01-10T11:49:56;101381.44;;;0.06;54.63
4346;BME280;2186;49.866;7.986;2024-01-10T11:52:26;101376.13;;;0.03;54.85
4346;BME280;2186;49.866;7.986;2024-01-10T11:54:58;101373.47;;;0.30;54.32
4346;BME280;2186;49.866;7.986;2024-01-10T11:57:28;101371.53;;;0.24;54.83
4346;BME280;2186;49.866;7.986;2024-01-10T11:59:58;101373.47;;;0.30;54.08
4346;BME280;2186;49.866;7.986;2024-01-10T12:02:29;101375.25;;;0.31;53.26
4346;BME280;2186;49.866;7.986;2024-01-10T12:04:56;101370.81;;;0.00;53.70
4346;BME280;2186;49.866;7.986;2024-01-10T12:07:23;101373.59;;;0.06;54.11
4346;BME280;2186;49.866;7.986;2024-01-10T12:09:54;101385.63;;;0.28;53.73
4346;BME280;2186;49.866;7.986;2024-01-10T12:12:21;101375.28;;;0.33;53.48
4346;BME280;2186;49.866;7.986;2024-01-10T12:14:47;101375.06;;;0.25;53.53
4346;BME280;2186;49.866;7.986;2024-01-10T12:17:14;101377.88;;;0.31;53.64
4346;BME280;2186;49.866;7.986;2024-01-10T12:19:41;101369.25;;;0.35;54.19
4346;BME280;2186;49.866;7.986;2024-01-10T12:22:12;101369.78;;;0.23;54.36
4346;BME280;2186;49.866;7.986;2024-01-10T12:24:43;101368.63;;;0.42;53.19
4346;BME280;2186;49.866;7.986;2024-01-10T12:27:11;101365.13;;;0.42;54.28
4346;BME280;2186;49.866;7.986;2024-01-10T12:29:38;101363.41;;;0.42;53.69
4346;BME280;2186;49.866;7.986;2024-01-10T12:32:05;101365.34;;;0.49;54.59
4346;BME280;2186;49.866;7.986;2024-01-10T12:34:31;101371.78;;;0.32;53.49
4346;BME280;2186;49.866;7.986;2024-01-10T12:36:58;101359.41;;;0.26;53.42
4346;BME280;2186;49.866;7.986;2024-01-10T12:39:25;101361.78;;;0.47;53.47
4346;BME280;2186;49.866;7.986;2024-01-10T12:41:57;101360.44;;;0.32;53.15
4346;BME280;2186;49.866;7.986;2024-01-10T12:44:30;101365.13;;;0.42;53.77
4346;BME280;2186;49.866;7.986;2024-01-10T12:46:57;101362.97;;;0.57;53.57
4346;BME280;2186;49.866;7.986;2024-01-10T12:49:24;101361.22;;;0.57;53.76
4346;BME280;2186;49.866;7.986;2024-01-10T12:51:50;101345.41;;;0.54;52.86
4346;BME280;2186;49.866;7.986;2024-01-10T12:54:17;101356.59;;;0.49;53.04
4346;BME280;2186;49.866;7.986;2024-01-10T12:56:44;101355.09;;;0.57;53.48
4346;BME280;2186;49.866;7.986;2024-01-10T12:59:12;101354.78;;;0.46;53.28
4346;BME280;2186;49.866;7.986;2024-01-10T13:01:39;101357.97;;;0.66;52.98
4346;BME280;2186;49.866;7.986;2024-01-10T13:04:05;101358.41;;;0.81;52.93
4346;BME280;2186;49.866;7.986;2024-01-10T13:06:34;101352.25;;;0.79;54.01
4346;BME280;2186;49.866;7.986;2024-01-10T13:09:01;101346.19;;;0.82;52.99
4346;BME280;2186;49.866;7.986;2024-01-10T13:11:28;101341.88;;;0.82;53.02
4346;BME280;2186;49.866;7.986;2024-01-10T13:13:55;101351.69;;;0.59;52.83
4346;BME280;2186;49.866;7.986;2024-01-10T13:16:21;101350.56;;;0.51;53.05
4346;BME280;2186;49.866;7.986;2024-01-10T13:18:48;101343.00;;;0.61;54.01
4346;BME280;2186;49.866;7.986;2024-01-10T13:21:14;101358.97;;;0.70;53.68
4346;BME280;2186;49.866;7.986;2024-01-10T13:23:41;101352.00;;;0.70;53.65
4346;BME280;2186;49.866;7.986;2024-01-10T13:26:08;101350.13;;;0.66;53.24